Main page
Satellite images 10-day forecastsClimateMarine weather Cyclones Lightning AirportsFAQ Newsletter About
Weather : Europe Africa North America South America Asia Australia-Oceania Others
Languages Contact

Istanbul Atatürk, Turkey

Istanbul Atatürk Airport

latitude: 40-58N, longitude: 028-49E, elevation: 48 m


METAR: LTBA 311450Z 02014KT 350V050 CAVOK 31/19 Q1008 NOSIG
TAF: LTBA 311040Z 3112/0118 03015KT CAVOK BECMG 0103/0106 SCT030

Time: 18:20 (15:20 UTC)

Current weather observation

The report was made 30 minutes ago, at 14:50 UTC
Wind 14 kt from the North/Northeast, varying between North and Northeast
Temperature 31°C
Humidity 49%
Pressure 1008 hPa
Visibility 10 km or more
no clouds below 1500 m and no cumulonimbus

Change units

Forecast

The report was made 4 hours and 40 minutes ago, at 10:40 UTC
Forecast valid from 31 at 12 UTC to 01 at 18 UTC
Wind 15 kt from the North/Northeast
Visibility 10 km or more
no clouds below 1500 m and no cumulonimbus
Becoming
from 01 at 03 UTC to 01 at 06 UTC
Scattered clouds at a height of 3000 ft
The information on this site is subject to a disclaimer
Weather : Europe Africa North America South America Asia Australia-Oceania Others
Satellite images 10-day forecastsClimateMarine weather Cyclones Lightning AirportsFAQ Languages Contact Newsletter About